Startpagina
METAR-TAF:

METAR-TAF

Vliegvelden :

Libreville, Gabon

Luchthaven Libreville Internationaal

breedte: 00-27N, lengte: 009-25E, hoogte: 12 m

Actueel weer

Dit bericht is 22 minuten geleden gemaakt, om 00:00 UTC
Wind 8 kt uit het zuiden, variërend tussen het zuidzuidoosten en het zuidwesten
Temperatuur 25°C
Vochtigheid 89%
Druk 1014 hPa
Zicht 10 km of meer
Weinig wolken op 1000 ft

METAR: FOOL 280000Z 19008KT 160V220 9999 FEW010 25/23 Q1014 NOSIG

Tijdstip: 01:22 (00:22 UTC)

Verwachting

Dit bericht is 1 uur en het 22 minuten geleden gemaakt, om 23:00 UTC
Verwachting geldig van 28 om 00 UTC tot 29 om 06 UTC
Wind 10 kt uit het zuidzuidwesten
Zicht 10 km of meer
Verspreide wolken op 1000 ft
Gebroken wolken op 2600 ft
Kans 30% :
Tijdelijke
van 28 om 02 UTC tot 28 om 06 UTC
Zicht: 4500 m
Gebroken wolken op 800 ft
regen, motregen

TAF: FOOL 272300Z 2800/2906 20010KT 9999 SCT010 BKN026 PROB30 TEMPO 2802/2806 4500 RADZ BKN008

Waarnemingen en weersverwachtingen van meer dan 4000 vliegvelden (METAR en TAF).

De beschikbare stations zijn de gele en rode punten op de kaart.

Ga met uw muis naar het station om de naam te zien.

Klik dan om waarnemingen en weersverwachtingen te zien.

kaart wijzigen: klik op de groene knoppen met een zwart kruis om in te zoomen, op de groene knop met een streepje om uit te zoomen of op de groene pijlen voor aangrenzende kaarten.


METAR-TAF: